Map

Track Data

SID SEASON NUMBER BASIN SUBBASIN NAME ISO_TIME NATURE LAT LON WMO_WIND WMO_PRES WMO_AGENCY TRACK_TYPE DIST2LAND LANDFALL IFLAG USA_AGENCY USA_ATCF_ID USA_LAT USA_LON USA_RECORD USA_STATUS USA_WIND USA_PRES USA_SSHS USA_R34_NE USA_R34_SE USA_R34_SW USA_R34_NW USA_R50_NE USA_R50_SE USA_R50_SW USA_R50_NW USA_R64_NE USA_R64_SE USA_R64_SW USA_R64_NW USA_POCI USA_ROCI USA_RMW USA_EYE TOKYO_LAT TOKYO_LON TOKYO_GRADE TOKYO_WIND TOKYO_PRES TOKYO_R50_DIR TOKYO_R50_LONG TOKYO_R50_SHORT TOKYO_R30_DIR TOKYO_R30_LONG TOKYO_R30_SHORT TOKYO_LAND CMA_LAT CMA_LON CMA_CAT CMA_WIND CMA_PRES HKO_LAT HKO_LON HKO_CAT HKO_WIND HKO_PRES NEWDELHI_LAT NEWDELHI_LON NEWDELHI_GRADE NEWDELHI_WIND NEWDELHI_PRES NEWDELHI_CI NEWDELHI_DP NEWDELHI_POCI REUNION_LAT REUNION_LON REUNION_TYPE REUNION_WIND REUNION_PRES REUNION_TNUM REUNION_CI REUNION_RMW REUNION_R34_NE REUNION_R34_SE REUNION_R34_SW REUNION_R34_NW REUNION_R50_NE REUNION_R50_SE REUNION_R50_SW REUNION_R50_NW REUNION_R64_NE REUNION_R64_SE REUNION_R64_SW REUNION_R64_NW BOM_LAT BOM_LON BOM_TYPE BOM_WIND BOM_PRES BOM_TNUM BOM_CI BOM_RMW BOM_R34_NE BOM_R34_SE BOM_R34_SW BOM_R34_NW BOM_R50_NE BOM_R50_SE BOM_R50_SW BOM_R50_NW BOM_R64_NE BOM_R64_SE BOM_R64_SW BOM_R64_NW BOM_ROCI BOM_POCI BOM_EYE BOM_POS_METHOD BOM_PRES_METHOD NADI_LAT NADI_LON NADI_CAT NADI_WIND NADI_PRES WELLINGTON_LAT WELLINGTON_LON WELLINGTON_WIND WELLINGTON_PRES DS824_LAT DS824_LON DS824_STAGE DS824_WIND DS824_PRES TD9636_LAT TD9636_LON TD9636_STAGE TD9636_WIND TD9636_PRES TD9635_LAT TD9635_LON TD9635_WIND TD9635_PRES TD9635_ROCI NEUMANN_LAT NEUMANN_LON NEUMANN_CLASS NEUMANN_WIND NEUMANN_PRES MLC_LAT MLC_LON MLC_CLASS MLC_WIND MLC_PRES USA_GUST BOM_GUST BOM_GUST_PER REUNION_GUST REUNION_GUST_PER USA_SEAHGT USA_SEARAD_NE USA_SEARAD_SE USA_SEARAD_SW USA_SEARAD_NW STORM_SPEED STORM_DIR
1999286N16278 1999 89 NA CS IRENE 1999-10-12 12:00:00 DS 15.9000 -82.0000 20 1006 hurdat_atl main 155 131 O_____________ hurdat_atl AL131999 15.9000 -82.0000 LO 20 1006 -3 12 297
1999286N16278 1999 89 NA CS IRENE 1999-10-12 15:00:00 DS 16.1780 -82.5770 main 132 124 P_____________ AL131999 16.1780 -82.5770 LO 20 1006 -3 11 298
1999286N16278 1999 89 NA CS IRENE 1999-10-12 18:00:00 DS 16.4000 -83.0000 20 1006 hurdat_atl main 130 127 O_____________ hurdat_atl AL131999 16.4000 -83.0000 LO 20 1006 -3 7 303
1999286N16278 1999 89 NA CS IRENE 1999-10-12 21:00:00 DS 16.5423 -83.1677 main 132 132 P_____________ AL131999 16.5423 -83.1677 LO 20 1005 -3 4 328
1999286N16278 1999 89 NA CS IRENE 1999-10-13 00:00:00 DS 16.7000 -83.2000 20 1005 hurdat_atl main 149 149 O_____________ hurdat_atl AL131999 16.7000 -83.2000 LO 20 1005 -3 4 348
1999286N16278 1999 89 NA CS IRENE 1999-10-13 03:00:00 DS 16.9325 -83.2576 main 162 162 P_____________ AL131999 16.9325 -83.2576 LO 25 1004 -3 6 351
1999286N16278 1999 89 NA CS IRENE 1999-10-13 06:00:00 TS 17.3000 -83.3000 30 1004 hurdat_atl main 198 198 O_____________ hurdat_atl AL131999 17.3000 -83.3000 TD 30 1004 -1 9 355
1999286N16278 1999 89 NA CS IRENE 1999-10-13 09:00:00 TS 17.8475 -83.3426 main 247 247 P_____________ AL131999 17.8475 -83.3426 TD 32 1003 -1 12 355
1999286N16278 1999 89 NA CS IRENE 1999-10-13 12:00:00 TS 18.5000 -83.4000 35 1003 hurdat_atl main 316 267 O_____________ hurdat_atl AL131999 18.5000 -83.4000 TS 35 1003 0 13 353
1999286N16278 1999 89 NA CS IRENE 1999-10-13 15:00:00 TS 19.1725 -83.5073 main 256 197 P_____________ AL131999 19.1725 -83.5073 TS 40 1002 0 13 352
1999286N16278 1999 89 NA CS IRENE 1999-10-13 18:00:00 TS 19.8000 -83.6000 45 1001 hurdat_atl main 197 147 O_____________ hurdat_atl AL131999 19.8000 -83.6000 TS 45 1001 0 12 355
1999286N16278 1999 89 NA CS IRENE 1999-10-13 21:00:00 TS 20.3250 -83.6152 main 147 108 P_____________ AL131999 20.3250 -83.6152 TS 50 1000 0 9 0
1999286N16278 1999 89 NA CS IRENE 1999-10-14 00:00:00 TS 20.7000 -83.6000 55 999 hurdat_atl main 108 91 O_____________ hurdat_atl AL131999 20.7000 -83.6000 TS 55 999 0 6 357
1999286N16278 1999 89 NA CS IRENE 1999-10-14 03:00:00 TS 20.8949 -83.6524 main 98 83 P_____________ AL131999 20.8949 -83.6524 TS 57 999 0 3 0
1999286N16278 1999 89 NA CS IRENE 1999-10-14 06:00:00 TS 21.0000 -83.6000 60 999 hurdat_atl main 83 54 O_____________ hurdat_atl AL131999 21.0000 -83.6000 TS 60 999 0 4 60
1999286N16278 1999 89 NA CS IRENE 1999-10-14 09:00:00 TS 21.0902 -83.2873 main 54 15 P_____________ AL131999 21.0902 -83.2873 TS 60 998 0 7 65
1999286N16278 1999 89 NA CS IRENE 1999-10-14 12:00:00 TS 21.3000 -82.9000 60 997 hurdat_atl main 15 0 O_____________ hurdat_atl AL131999 21.3000 -82.9000 L TS 60 997 0 10 50
1999286N16278 1999 89 NA CS IRENE 1999-10-14 15:00:00 TS 21.7076 -82.4904 main 10 10 P_____________ AL131999 21.7076 -82.4904 TS 60 996 0 12 23
1999286N16278 1999 89 NA CS IRENE 1999-10-14 18:00:00 TS 22.4000 -82.4000 60 995 hurdat_atl main 20 0 O_____________ hurdat_atl AL131999 22.4000 -82.4000 TS 60 995 0 15 0
1999286N16278 1999 89 NA CS IRENE 1999-10-14 19:00:00 TS 22.7000 -82.5000 60 986 hurdat_atl main 0 0 O_____________ hurdat_atl AL131999 22.7000 -82.5000 L TS 60 986 0 13 342
1999286N16278 1999 89 NA NA IRENE 1999-10-14 21:00:00 TS 23.0076 -82.6160 main 0 0 P_____________ AL131999 23.0076 -82.6160 TS 60 986 0 5 348
1999286N16278 1999 89 NA NA IRENE 1999-10-15 00:00:00 TS 23.1000 -82.6000 60 988 hurdat_atl main 10 10 O_____________ hurdat_atl AL131999 23.1000 -82.6000 TS 60 988 0 5 20
1999286N16278 1999 89 NA NA IRENE 1999-10-15 03:00:00 TS 23.4393 -82.4430 main 33 33 P_____________ AL131999 23.4393 -82.4430 TS 62 988 0 8 28
1999286N16278 1999 89 NA NA IRENE 1999-10-15 06:00:00 TS 23.8000 -82.2000 65 988 hurdat_atl main 78 78 O_____________ hurdat_atl AL131999 23.8000 -82.2000 HU 65 988 1 7 28
1999286N16278 1999 89 NA NA IRENE 1999-10-15 09:00:00 TS 24.0247 -82.1073 main 100 100 P_____________ AL131999 24.0247 -82.1073 HU 65 987 1 7 31
1999286N16278 1999 89 NA NA IRENE 1999-10-15 12:00:00 TS 24.4000 -81.8000 65 987 hurdat_atl main 105 75 O_____________ hurdat_atl AL131999 24.4000 -81.8000 HU 65 987 1 11 39
1999286N16278 1999 89 NA NA IRENE 1999-10-15 13:00:00 TS 24.6000 -81.6000 65 987 hurdat_atl main 75 45 O_____________ hurdat_atl AL131999 24.6000 -81.6000 L HU 65 987 1 12 38
1999286N16278 1999 89 NA GM IRENE 1999-10-15 15:00:00 TS 24.8644 -81.4038 main 37 15 P_____________ AL131999 24.8644 -81.4038 HU 65 986 1 7 29
1999286N16278 1999 89 NA GM IRENE 1999-10-15 18:00:00 TS 25.1000 -81.3000 65 986 hurdat_atl main 15 0 O_____________ hurdat_atl AL131999 25.1000 -81.3000 HU 65 986 1 6 32
1999286N16278 1999 89 NA GM IRENE 1999-10-15 20:00:00 TS 25.3000 -81.1000 70 987 hurdat_atl main 11 0 O_____________ hurdat_atl AL131999 25.3000 -81.1000 L HU 70 987 1 9 38
1999286N16278 1999 89 NA NA IRENE 1999-10-15 21:00:00 TS 25.4652 -80.9790 main 0 0 P_____________ AL131999 25.4652 -80.9790 HU 68 986 1 14 29
1999286N16278 1999 89 NA NA IRENE 1999-10-16 00:00:00 TS 26.1000 -80.6000 65 986 hurdat_atl main 0 0 O_____________ hurdat_atl AL131999 26.1000 -80.6000 HU 65 986 1 13 27
1999286N16278 1999 89 NA NA IRENE 1999-10-16 03:00:00 TS 26.5844 -80.3465 main 0 0 P_____________ AL131999 26.5844 -80.3465 HU 65 985 1 10 22
1999286N16278 1999 89 NA NA IRENE 1999-10-16 06:00:00 TS 27.0000 -80.2000 65 985 hurdat_atl main 0 0 O_____________ hurdat_atl AL131999 27.0000 -80.2000 HU 65 985 1 8 13
1999286N16278 1999 89 NA NA IRENE 1999-10-16 09:00:00 TS 27.4074 -80.1346 main 19 19 P_____________ AL131999 27.4074 -80.1346 HU 65 983 1 8 6
1999286N16278 1999 89 NA NA IRENE 1999-10-16 12:00:00 TS 27.8000 -80.1000 65 982 hurdat_atl main 37 37 O_____________ hurdat_atl AL131999 27.8000 -80.1000 HU 65 982 1 8 8
1999286N16278 1999 89 NA NA IRENE 1999-10-16 15:00:00 TS 28.2000 -80.0001 main 59 50 P_____________ AL131999 28.2000 -80.0001 HU 65 983 1 8 13
1999286N16278 1999 89 NA NA IRENE 1999-10-16 18:00:00 TS 28.6000 -79.9000 65 984 hurdat_atl main 59 59 O_____________ hurdat_atl AL131999 28.6000 -79.9000 HU 65 984 1 8 10
1999286N16278 1999 89 NA NA IRENE 1999-10-16 21:00:00 TS 29.0000 -79.8350 main 88 88 P_____________ AL131999 29.0000 -79.8350 HU 65 984 1 8 6
1999286N16278 1999 89 NA NA IRENE 1999-10-17 00:00:00 TS 29.4000 -79.8000 65 984 hurdat_atl main 111 111 O_____________ hurdat_atl AL131999 29.4000 -79.8000 HU 65 984 1 8 3
1999286N16278 1999 89 NA NA IRENE 1999-10-17 03:00:00 TS 29.7850 -79.7998 main 131 131 P_____________ AL131999 29.7850 -79.7998 HU 65 984 1 8 1
1999286N16278 1999 89 NA NA IRENE 1999-10-17 06:00:00 TS 30.2000 -79.8000 65 985 hurdat_atl main 150 150 O_____________ hurdat_atl AL131999 30.2000 -79.8000 HU 65 985 1 9 0
1999286N16278 1999 89 NA NA IRENE 1999-10-17 09:00:00 TS 30.6848 -79.8018 main 152 137 P_____________ AL131999 30.6848 -79.8018 HU 65 984 1 10 5
1999286N16278 1999 89 NA NA IRENE 1999-10-17 12:00:00 TS 31.2000 -79.7000 65 984 hurdat_atl main 137 110 O_____________ hurdat_atl AL131999 31.2000 -79.7000 HU 65 984 1 10 16
1999286N16278 1999 89 NA NA IRENE 1999-10-17 15:00:00 TS 31.6844 -79.4613 main 110 93 P_____________ AL131999 31.6844 -79.4613 HU 67 981 1 12 31
1999286N16278 1999 89 NA NA IRENE 1999-10-17 18:00:00 TS 32.2000 -79.0000 70 978 hurdat_atl main 96 85 O_____________ hurdat_atl AL131999 32.2000 -79.0000 HU 70 978 1 15 42
1999286N16278 1999 89 NA NA IRENE 1999-10-17 21:00:00 TS 32.7696 -78.3114 main 94 72 P_____________ AL131999 32.7696 -78.3114 HU 75 977 1 18 48
1999286N16278 1999 89 NA NA IRENE 1999-10-18 00:00:00 TS 33.4000 -77.4000 80 976 hurdat_atl main 78 78 O_____________ hurdat_atl AL131999 33.4000 -77.4000 HU 80 976 1 21 52
1999286N16278 1999 89 NA NA IRENE 1999-10-18 03:00:00 TS 34.0326 -76.3702 main 78 63 P_____________ AL131999 34.0326 -76.3702 HU 87 970 2 23 52
1999286N16278 1999 89 NA NA IRENE 1999-10-18 06:00:00 TS 34.8000 -75.2000 95 964 hurdat_atl main 100 92 O_____________ hurdat_atl AL131999 34.8000 -75.2000 HU 95 964 2 26 50
1999286N16278 1999 89 NA NA IRENE 1999-10-18 07:56:00 TS 35.4000 -74.4000 95 958 hurdat_atl main 108 108 O_____________ hurdat_atl AL131999 35.4000 -74.4000 I HU 95 958 2 30 51
1999286N16278 1999 89 NA NA IRENE 1999-10-18 09:00:00 TS 35.7509 -73.7833 main 152 152 P_____________ AL131999 35.7509 -73.7833 HU 93 958 2 39 58
1999286N16278 1999 89 NA NA IRENE 1999-10-18 12:00:00 TS 36.8000 -71.6000 90 960 hurdat_atl main 350 350 O_____________ hurdat_atl AL131999 36.8000 -71.6000 HU 90 960 2 39 58
1999286N16278 1999 89 NA NA IRENE 1999-10-18 15:00:00 TS 37.8544 -69.6467 main 411 367 P_____________ AL131999 37.8544 -69.6467 HU 85 964 2 40 56
1999286N16278 1999 89 NA NA IRENE 1999-10-18 18:00:00 TS 39.0000 -67.4000 80 968 hurdat_atl main 372 368 O_____________ hurdat_atl AL131999 39.0000 -67.4000 HU 80 968 1 46 60
1999286N16278 1999 89 NA NA IRENE 1999-10-18 21:00:00 TS 40.1437 -64.5634 main 382 354 P_____________ AL131999 40.1437 -64.5634 HU 80 968 1 55 63
1999286N16278 1999 89 NA NA IRENE 1999-10-19 00:00:00 TS 41.5000 -61.0000 80 968 hurdat_atl main 384 376 O_____________ hurdat_atl AL131999 41.5000 -61.0000 HU 80 968 1 70 64
1999286N16278 1999 89 NA NA IRENE 1999-10-19 03:00:00 TS 43.2044 -56.0818 main 401 231 P_____________ AL131999 43.2044 -56.0818 HU 80 968 1 77 64
1999286N16278 1999 89 NA NA IRENE 1999-10-19 06:00:00 ET 44.9000 -51.5000 80 968 hurdat_atl main 230 230 O_____________ hurdat_atl AL131999 44.9000 -51.5000 EX 80 968 -4 58 56
1999286N16278 1999 89 NA NA IRENE 1999-10-19 09:00:00 ET 46.4424 -49.2216 main 284 284 P_____________ AL131999 46.4424 -49.2216 EX 80 968 -4 39 38
1999286N16278 1999 89 NA NA IRENE 1999-10-19 12:00:00 ET 48.0000 -48.0000 80 968 hurdat_atl main 346 346 O_____________ hurdat_atl AL131999 48.0000 -48.0000 EX 80 968 -4 35 29
1999286N16278 1999 89 NA NA IRENE 1999-10-19 15:00:00 ET 49.5218 -46.6356 main 477 477 P_____________ AL131999 49.5218 -46.6356 EX 80 968 -4 36 33
1999286N16278 1999 89 NA NA IRENE 1999-10-19 18:00:00 ET 51.0000 -45.0000 80 968 hurdat_atl main 631 O_____________ hurdat_atl AL131999 51.0000 -45.0000 EX 80 968 -4 36 35

About IBTrACS Database

This database is a web-friendly format of International Best Track Archive for Climate Stewardship (IBTrACS), a global best track data archive curated by NOAA dating back to 1842.

Updated: 2021-10-08